Terminal Aerodrome Forecast
Issued by NWS

Home | Current Version | Previous Version | Text Only | Print | Product List | Glossary On
Versions: 1 2 3 4 5 6 7 8 9 10 11 12 13 14 15 16 17 18 19 20 21
421
FTUS43 KIND 302320
TAFLAF
TAF
KLAF 302320Z 3100/3124 29006KT P6SM VCSH SCT040
     FM310400 27002KT 4SM BR SCT250
     FM310600 31003KT 1 1/2SM BR BKN006 BKN040
      TEMPO 3107/3111 1/2SM FG BKN003 BKN015
     FM311200 00000KT 1 1/2SM BR OVC004
     FM311500 32007KT P6SM OVC025
     FM311700 29005KT P6SM BKN050
      AMD LTD TO CLD VIS AND WIND TIL 311300=

USA.gov is the U.S. government's official web portal to all federal, state and local government web resources and services.